Date,TemperatureHighF,TemperatureAvgF,TemperatureLowF,DewpointHighF,DewpointAvgF,DewpointLowF,HumidityHigh,HumidityAvg,HumidityLow,PressureMaxIn,PressureMinIn,WindSpeedMaxMPH,WindSpeedAvgMPH,GustSpeedMaxMPH,PrecipitationSumIn
2013-1-1,40.1,27.5,24.7,32.0,-3.2,-99.9,73,50,54,29.96,29.78,15,-214,20,0.14
2013-1-2,29.7,20.3,20.6,18.0,-12.5,-99.9,70,47,56,30.11,29.95,14,-238,15,0.00
2013-1-3,32.1,19.9,14.2,24.0,-10.9,-99.9,79,46,45,30.16,30.02,11,-200,16,0.00
2013-1-4,37.8,28.6,30.3,29.0,1.0,-99.9,75,55,64,30.02,29.88,12,-194,27,0.00
2013-1-5,43.0,29.2,29.2,30.0,1.6,-99.9,79,54,49,30.25,29.92,10,-189,18,0.00
2013-1-6,41.1,28.7,31.2,37.0,1.3,-99.9,92,64,76,30.21,29.95,10,-240,16,0.00
2013-1-7,44.4,30.3,31.5,32.0,3.7,-99.9,87,57,52,30.40,29.99,10,-192,10,0.00
2013-1-8,46.1,33.2,32.3,38.0,8.6,-99.9,94,65,68,30.41,30.32,10,-200,12,0.00
2013-1-9,46.7,34.0,33.8,42.0,13.5,-99.9,97,74,83,30.38,30.08,11,-183,24,0.00
2013-1-10,46.9,31.3,32.9,40.0,-2.5,-99.9,85,48,48,30.52,30.12,10,-245,17,0.00
2013-1-11,44.6,31.4,30.0,44.0,8.5,-99.9,96,69,76,30.52,30.16,5,-199,9,0.11
2013-1-12,46.3,34.6,42.5,46.0,11.0,-99.9,98,75,96,30.16,30.08,6,-230,9,0.14
2013-1-13,46.0,35.6,42.2,46.0,15.2,-99.9,99,78,97,30.16,30.02,3,-200,6,0.02
2013-1-14,52.8,35.6,38.4,52.0,7.1,-99.9,99,64,55,30.24,29.95,5,-248,13,0.03
2013-1-15,40.7,28.5,35.4,34.0,-2.3,-99.9,89,57,72,30.30,30.19,2,-260,6,0.09
2013-1-16,38.2,26.8,33.6,37.0,-0.1,-99.9,97,70,74,30.22,29.76,6,-259,15,0.27
2013-1-17,44.2,29.7,33.5,36.0,-1.0,-99.9,94,54,60,30.07,29.87,7,-240,13,0.03
2013-1-18,33.5,21.8,23.8,24.0,-11.7,-99.9,78,40,36,30.49,30.00,9,-198,14,0.00
2013-1-19,45.9,34.1,30.3,39.0,9.7,-99.9,87,61,61,30.42,29.94,12,-174,16,0.00
2013-1-20,53.2,35.5,31.2,40.0,6.5,-99.9,86,52,42,29.96,29.64,13,-189,27,0.00
2013-1-21,31.1,23.5,23.7,29.0,-2.6,-99.9,95,58,47,30.11,29.78,6,-191,13,0.00
2013-1-22,26.9,17.1,15.5,25.0,-15.5,-99.9,93,44,42,30.11,29.76,1,-215,3,0.00
2013-1-23,18.9,13.0,10.7,2.0,-13.0,-99.9,64,45,43,30.19,30.10,9,-129,16,0.00
2013-1-24,21.9,13.3,9.5,4.0,-19.1,-99.9,66,40,38,30.29,30.12,12,-186,22,0.00
2013-1-25,25.0,16.7,13.9,18.0,-12.7,-99.9,89,47,43,30.35,30.03,8,-187,15,0.00
2013-1-26,26.1,17.3,15.5,16.0,-10.3,-99.9,88,52,52,30.28,30.00,9,-185,13,0.00
2013-1-27,33.0,20.7,15.9,12.0,-15.1,-99.9,74,37,35,30.48,30.29,8,-208,14,0.00
2013-1-28,36.9,25.6,24.0,36.0,-0.9,-99.9,95,60,42,30.46,29.99,7,-201,9,0.07
2013-1-29,42.3,30.0,32.1,39.0,8.4,-99.9,96,73,80,30.19,29.99,3,-197,6,0.08
2013-1-30,51.9,39.4,39.3,51.0,20.7,-99.9,98,79,95,30.14,29.49,8,-177,12,0.00
2013-1-31,51.9,21.4,46.5,51.0,-37.0,-99.9,98,36,68,29.48,29.07,21,-555,31,0.00
2013-2-1,32.2,28.2,24.2,16.0,11.7,8.0,57,50,42,30.14,29.78,9,3,14,0.00
2013-2-2,30.8,21.9,22.5,24.0,-7.6,-99.9,91,51,50,30.28,30.06,10,-208,15,0.00
2013-2-3,33.6,21.9,23.9,24.0,-8.5,-99.9,90,54,55,30.05,29.73,4,-239,6,0.00
2013-2-4,31.5,22.4,24.2,19.0,-11.2,-99.9,73,42,46,29.96,29.75,0,-218,0,0.00
2013-2-5,27.6,19.7,25.3,25.0,-10.5,-99.9,90,60,51,30.00,29.90,0,-263,1,0.00
2013-2-6,39.5,25.6,27.4,31.0,-5.1,-99.9,91,53,38,30.31,29.90,6,-228,15,0.02
2013-2-7,33.7,23.0,23.1,23.0,-11.1,-99.9,74,42,37,30.51,30.31,2,-218,5,0.00
2013-2-8,33.6,23.2,24.3,33.0,-5.0,-99.9,97,68,72,30.41,29.42,11,-268,17,0.10
2013-2-9,26.3,15.0,18.5,23.0,-25.4,-99.9,95,48,56,30.22,29.48,0,-358,0,0.00
2013-2-10,34.5,18.2,17.3,24.0,-24.8,-99.9,85,42,45,30.43,30.23,4,-364,10,0.01
2013-2-11,44.5,26.7,28.7,44.0,-5.5,-99.9,98,64,76,30.35,29.75,7,-306,9,0.63
2013-3-23,46.1,39.8,36.5,26.0,17.6,-99.9,58,46,39,29.82,29.67,14,-39,17,0.00
2013-3-24,48.3,35.1,31.8,34.0,13.9,-99.9,82,58,45,29.86,29.68,8,-108,12,0.00
2013-3-25,45.7,34.9,33.5,36.0,19.6,-99.9,93,71,60,29.74,29.42,10,-92,13,0.07
2013-3-26,46.5,33.0,33.7,37.0,11.2,-99.9,90,64,63,29.80,29.49,3,-160,10,0.00
2013-3-27,50.7,38.9,29.6,35.0,15.9,-99.9,79,54,43,29.86,29.77,9,-92,17,0.00
2013-3-28,49.5,37.7,38.2,39.0,19.5,-99.9,89,67,59,30.03,29.86,5,-115,8,0.00
2013-3-29,54.2,36.0,40.3,40.0,4.2,-99.9,85,51,44,30.07,29.98,15,-228,20,0.00
2013-3-30,53.8,41.3,40.8,39.0,18.0,-99.9,80,54,38,30.11,30.02,10,-103,15,0.00
2013-3-31,50.5,39.5,34.1,43.0,26.4,-99.9,96,78,72,30.12,29.64,8,-94,12,0.11
2013-4-1,51.2,38.8,36.7,47.0,21.5,-99.9,98,74,53,29.82,29.56,10,-133,16,0.05
2013-4-2,43.7,32.4,32.8,23.0,0.6,-99.9,66,40,32,29.99,29.82,15,-155,21,0.00
2013-4-3,46.5,35.8,33.6,25.0,8.0,-99.9,59,40,32,30.20,29.99,13,-88,18,0.00
2013-4-4,45.9,36.2,32.6,36.0,16.5,-99.9,85,57,42,30.34,30.09,9,-80,15,0.00
2013-4-5,53.6,40.7,39.8,43.0,20.5,-99.9,93,62,28,30.08,29.64,8,-98,14,0.00
2013-4-6,49.4,37.8,35.3,31.0,10.4,-99.9,77,45,26,30.31,29.88,8,-81,16,0.00
2013-4-7,51.5,40.0,34.8,43.0,25.3,-99.9,93,75,68,30.31,30.02,7,-104,10,0.00
2013-4-8,56.3,45.6,41.9,47.0,37.3,-99.9,96,82,68,30.08,29.96,7,-43,10,0.00
2013-4-9,73.8,51.8,43.1,55.0,32.9,-99.9,98,65,38,30.06,29.85,11,-90,15,0.00
2013-4-10,58.9,45.4,43.4,51.0,34.7,-99.9,96,81,75,30.01,29.84,5,-74,11,0.21
2013-4-11,55.4,43.4,43.0,52.0,32.7,-99.9,98,83,80,30.09,29.80,6,-82,10,0.03
2013-4-12,44.4,36.3,39.4,41.0,21.0,-99.9,96,78,72,30.09,29.70,13,-122,20,0.65
2013-4-13,52.8,40.6,39.4,44.0,25.6,-99.9,95,74,60,29.94,29.68,9,-100,11,0.01
2013-4-14,56.2,44.1,40.3,43.0,24.5,-99.9,92,60,46,30.21,29.93,10,-88,21,0.00
2013-4-15,51.8,39.9,38.2,43.0,21.1,-99.9,95,66,62,30.39,30.20,3,-120,5,0.00
2013-4-16,56.2,44.6,40.2,49.0,33.0,-99.9,97,81,74,30.40,30.14,7,-83,9,0.00
2013-4-17,65.5,47.9,43.1,51.0,29.6,-99.9,97,67,42,30.30,30.09,6,-107,10,0.02
2013-4-18,56.6,45.8,40.2,47.0,35.9,-99.9,94,80,70,30.39,30.13,5,-55,7,0.00
2013-4-19,56.2,47.7,48.3,55.0,37.8,-99.9,99,88,93,30.13,29.70,9,-90,15,0.02
2013-4-20,55.9,44.9,45.3,56.0,27.8,-99.9,99,71,47,30.20,29.65,11,-112,18,0.18
2013-4-21,53.2,41.5,36.2,36.0,22.1,-99.9,78,55,40,30.65,30.21,7,-60,11,0.00
2013-4-22,52.4,41.6,35.5,42.0,28.1,-99.9,91,70,57,30.68,30.52,10,-60,12,0.00
2013-4-23,47.1,40.2,40.0,44.0,28.5,-99.9,93,80,78,30.51,30.00,8,-81,12,0.00
2013-4-24,59.1,45.0,43.8,48.0,32.5,-99.9,97,78,65,30.00,29.89,11,-81,13,0.00
2013-4-25,62.4,49.7,46.4,50.0,32.0,-99.9,98,63,34,30.25,29.89,6,-61,13,0.01
2013-4-26,58.4,48.1,40.2,49.0,36.5,-99.9,95,73,55,30.39,30.25,4,-42,6,0.00
2013-4-27,58.4,46.4,40.9,51.0,37.8,-99.9,97,83,74,30.40,30.31,4,-51,5,0.00
2013-4-28,59.3,46.2,38.6,51.0,36.2,-99.9,98,81,63,30.34,30.24,3,-62,5,0.00
2013-4-29,57.9,48.3,46.3,51.0,37.7,-99.9,97,79,72,30.27,30.22,3,-62,4,0.00
2013-4-30,61.4,50.6,43.4,51.0,39.1,-99.9,90,72,62,30.34,30.23,4,-41,6,0.00
2013-5-1,60.2,48.0,39.0,52.0,36.1,-99.9,94,76,70,30.47,30.33,4,-64,7,0.00
2013-5-2,65.7,51.3,42.1,51.0,42.2,-99.9,97,78,52,30.45,30.33,5,-30,7,0.00
2013-5-3,64.4,50.4,45.2,50.0,37.2,-99.9,94,71,54,30.45,30.34,6,-51,9,0.00
2013-5-4,60.6,48.9,42.0,51.0,38.5,-99.9,93,76,63,30.34,30.23,7,-40,10,0.00
2013-5-5,61.1,48.4,39.9,50.0,40.1,-99.9,93,80,65,30.28,30.22,4,-30,7,0.00
2013-5-6,60.7,48.8,43.5,51.0,40.1,-99.9,96,81,69,30.27,30.16,3,-41,5,0.00
2013-5-7,62.5,49.9,45.2,57.0,39.2,-99.9,100,84,79,30.17,30.11,3,-83,5,0.00
2013-5-8,61.2,53.1,53.4,58.0,46.8,-99.9,98,91,89,30.14,30.02,10,-50,10,0.00
2013-5-9,61.4,51.3,52.0,61.0,43.6,-99.9,100,91,96,30.02,29.85,4,-72,7,0.56
2013-5-10,66.2,55.0,51.0,62.0,48.6,-99.9,99,88,76,29.96,29.90,6,-40,9,0.01
2013-5-11,58.2,50.1,52.6,57.0,40.1,-99.9,100,88,93,29.93,29.75,7,-92,9,0.07
2013-5-17,53.3,52.3,50.8,51.0,49.4,48.0,90,89,89,30.20,30.17,3,1,7,0.00
2013-5-18,63.9,53.2,47.9,56.0,43.8,-99.9,97,81,67,30.30,30.20,5,-51,7,0.00
2013-5-19,61.6,50.2,50.6,55.0,38.3,-99.9,98,82,78,30.35,30.20,3,-93,5,0.18
2013-5-20,71.9,56.6,53.8,66.0,48.9,-99.9,99,89,79,30.19,29.94,7,-61,13,0.07
2013-5-21,69.7,61.1,55.1,67.0,59.2,54.0,99,93,82,29.96,29.83,4,1,6,0.00
2013-5-22,66.1,55.2,53.3,61.0,48.3,-99.9,97,89,82,29.94,29.86,2,-52,5,0.00
2013-5-23,65.3,54.9,56.8,62.0,44.1,-99.9,98,86,88,29.92,29.81,6,-95,9,0.14
2013-5-24,63.3,51.9,48.9,63.0,40.2,-99.9,99,85,83,29.80,29.66,5,-105,9,0.33
2013-5-25,54.8,44.9,45.0,51.0,34.2,-99.9,97,83,83,29.80,29.72,9,-81,12,0.05
2013-5-26,62.4,49.6,45.3,49.0,35.4,-99.9,86,69,58,30.13,29.78,13,-70,20,0.00
2013-5-27,69.3,57.5,48.6,53.0,47.9,43.0,91,72,46,30.18,30.09,5,2,10,0.00
2013-5-28,62.7,55.6,47.7,57.0,52.4,46.0,97,89,74,30.22,30.15,3,1,5,0.04
2013-5-29,69.4,56.0,54.3,64.0,48.1,-99.9,98,88,82,30.15,30.00,3,-62,3,0.03
2013-5-30,77.0,67.3,57.2,69.0,62.7,56.0,97,85,72,30.09,30.02,3,1,5,0.00
2013-5-31,81.4,69.8,60.9,70.0,63.9,57.0,96,82,65,30.09,29.97,3,1,6,0.00
2013-6-1,75.3,66.4,59.0,68.0,62.3,57.0,96,87,73,30.00,29.91,3,1,6,0.00
2013-6-2,73.5,65.9,60.8,65.0,62.3,60.0,96,88,74,29.93,29.80,5,1,8,0.00
2013-6-3,65.3,59.5,59.0,65.0,55.7,-99.9,99,94,92,29.83,29.78,3,-33,6,0.35
2013-6-4,75.3,60.5,55.0,61.0,43.2,-99.9,99,62,47,30.05,29.81,4,-51,6,0.00
2013-6-5,69.2,60.9,52.7,58.0,53.8,49.0,93,78,58,30.18,30.05,5,0,5,0.00
2013-6-6,66.5,60.1,54.2,62.0,57.6,53.0,96,92,83,30.17,30.05,3,1,3,0.00
2013-6-7,60.7,52.5,57.1,61.0,42.5,-99.9,100,88,94,30.03,29.67,7,-92,7,3.51
2013-6-8,74.2,57.9,56.1,66.0,44.5,-99.9,100,82,75,30.00,29.49,3,-95,9,0.36
2013-6-9,76.3,66.4,58.5,66.0,61.4,58.0,98,85,62,30.16,30.00,0,0,0,0.00
2013-6-10,66.0,61.8,59.0,64.0,60.2,58.0,99,94,87,30.16,29.90,0,0,0,0.15
2013-6-11,75.3,61.4,59.3,72.0,53.8,-99.9,100,90,81,29.89,29.56,0,-64,0,0.00
2013-6-12,74.8,66.1,58.4,62.0,58.2,55.0,95,77,54,29.81,29.59,0,0,0,0.00
2013-6-13,61.5,57.7,53.9,59.0,56.1,53.0,97,94,89,29.81,29.50,5,0,6,0.00
2013-6-14,69.8,53.7,53.2,59.0,37.7,-99.9,98,74,65,29.78,29.49,5,-114,7,0.00
2013-6-15,77.4,66.1,57.5,63.0,56.2,-99.9,94,74,47,29.94,29.79,3,-10,11,0.00
2013-6-16,75.4,65.5,57.9,65.0,61.5,57.0,97,87,67,29.95,29.74,3,0,7,0.00
2013-6-17,82.3,61.4,61.2,71.0,46.0,-99.9,97,76,67,29.90,29.80,3,-114,9,0.00
2013-6-18,73.5,57.8,59.3,68.0,44.4,-99.9,98,82,81,29.89,29.82,3,-114,4,0.00
2013-6-19,80.3,53.8,58.4,67.0,27.2,-99.9,98,63,58,30.12,29.82,2,-212,4,0.00
2013-6-20,81.6,59.8,54.5,65.0,41.2,-99.9,96,68,47,30.26,30.12,2,-116,5,0.00
2013-6-21,77.8,59.6,59.5,66.0,41.7,-99.9,94,70,59,30.27,30.22,7,-118,8,0.00
2013-6-22,82.7,61.5,60.8,68.0,44.3,-99.9,96,72,55,30.25,30.14,2,-114,5,0.00
2013-6-23,80.2,61.5,60.8,70.0,46.8,-99.9,98,78,69,30.18,30.05,4,-114,7,0.01
2013-6-24,86.2,65.8,65.8,76.0,50.0,-99.9,99,76,66,30.05,29.90,10,-116,10,0.00
2013-6-25,84.3,72.6,65.8,72.0,67.8,64.0,96,85,66,29.94,29.74,5,2,10,0.00
2013-6-26,81.1,65.8,65.7,73.0,49.8,-99.9,95,74,74,29.81,29.73,11,-112,12,0.00
2013-6-27,69.5,58.3,63.9,69.0,45.6,-99.9,99,86,94,29.80,29.66,8,-120,9,0.01
2013-6-28,71.5,46.4,64.8,70.0,15.0,-99.9,100,68,94,29.66,29.50,7,-310,10,0.05
2013-6-29,73.2,36.9,65.3,69.0,-13.6,-99.9,100,49,88,29.72,29.48,4,-462,7,0.00
2013-6-30,71.9,44.7,65.6,69.0,9.7,-99.9,99,63,88,29.93,29.72,4,-343,6,0.42
2013-7-1,72.5,47.7,66.1,71.0,16.8,-99.9,100,68,93,30.07,29.93,6,-304,7,0.04
2013-7-2,73.9,56.2,67.3,72.0,35.2,-99.9,99,77,89,30.18,30.08,3,-199,7,0.00
2013-7-3,78.9,72.1,67.3,74.0,70.2,67.0,99,94,84,30.23,30.16,4,1,5,0.00
2013-7-4,81.4,59.3,68.7,76.0,36.2,-99.9,99,72,79,30.22,30.13,4,-207,10,0.00
2013-7-5,85.0,68.4,70.5,76.0,54.9,-99.9,97,79,71,30.17,30.07,4,-99,9,0.00
2013-7-6,87.9,65.6,70.7,77.0,44.6,-99.9,96,71,65,30.09,29.97,6,-167,13,0.00
2013-7-7,86.8,71.2,69.9,78.0,58.8,-99.9,97,79,71,30.02,29.89,10,-82,11,0.00
2013-7-8,83.9,64.8,70.2,73.0,45.7,-99.9,98,73,68,30.01,29.91,5,-148,14,0.00
2013-7-9,72.6,58.0,67.4,71.0,38.5,-99.9,100,79,93,30.06,29.98,5,-169,7,0.00
2013-7-10,79.9,64.1,68.7,75.0,49.7,-99.9,100,84,83,30.02,29.79,6,-113,8,0.00
2013-7-11,74.4,62.1,70.1,73.0,47.4,-99.9,99,83,90,29.88,29.78,3,-137,7,0.01
2013-7-12,77.5,51.4,67.7,71.0,19.2,-99.9,99,63,79,30.12,29.87,8,-265,10,0.00
2013-7-13,71.1,49.6,66.4,70.0,19.3,-99.9,100,69,94,30.28,30.12,8,-279,9,0.25
2013-7-14,84.4,63.0,68.8,77.0,44.2,-99.9,100,76,73,30.29,30.19,4,-165,9,0.01
2013-7-15,89.0,79.9,72.1,78.0,74.0,71.0,97,83,64,30.19,30.08,6,2,10,0.00
2013-7-16,90.1,73.8,71.8,78.0,58.5,-99.9,97,72,63,30.12,30.07,3,-84,6,0.00
2013-7-17,82.3,67.8,71.4,76.0,52.9,-99.9,98,78,76,30.16,30.02,3,-114,4,0.00
2013-7-18,87.8,70.0,70.1,78.0,54.2,-99.9,100,76,71,30.03,29.93,4,-114,6,0.00
2013-7-19,89.5,73.4,71.9,80.0,62.0,-99.9,100,82,69,29.93,29.75,6,-60,10,0.00
2013-7-20,87.0,68.5,71.8,76.0,52.0,-99.9,97,75,67,29.80,29.67,5,-123,11,0.00
2013-7-21,76.3,63.8,68.7,72.0,48.9,-99.9,97,77,75,29.95,29.80,4,-114,5,0.16
2013-7-22,74.3,60.7,67.7,71.0,40.0,-99.9,100,79,88,29.96,29.84,8,-138,8,0.00
2013-7-23,80.2,57.3,68.8,76.0,34.3,-99.9,100,74,84,29.82,29.54,5,-216,7,0.10
2013-7-24,81.5,65.6,68.5,76.0,49.2,-99.9,99,76,71,29.87,29.56,4,-124,11,0.01
2013-7-25,70.7,59.2,60.9,63.0,46.5,-99.9,95,78,73,30.02,29.87,6,-81,10,0.06
2013-7-26,70.9,54.9,61.3,67.0,35.6,-99.9,97,76,85,30.02,29.91,5,-163,10,0.08
2013-7-27,77.7,67.1,66.8,72.0,58.2,-99.9,99,85,80,30.05,29.95,5,-61,7,0.00
2013-7-28,77.6,63.4,67.3,73.0,50.1,-99.9,98,82,82,29.98,29.92,4,-114,5,0.00
2013-7-29,78.2,68.7,67.7,75.0,61.9,-99.9,100,89,83,30.02,29.93,3,-51,4,0.00
2013-7-30,79.0,65.4,61.6,69.0,48.8,-99.9,96,69,58,30.09,30.02,9,-88,12,0.00
2013-7-31,77.8,64.8,62.1,68.0,51.0,-99.9,96,75,67,30.11,30.03,2,-84,5,0.00
2013-8-1,77.3,62.6,66.2,72.0,50.5,-99.9,99,83,82,30.03,29.84,4,-103,5,0.07
2013-8-2,80.1,65.2,67.4,71.0,48.8,-99.9,98,74,60,29.87,29.76,7,-112,15,0.06
2013-8-3,75.4,66.6,68.6,70.0,56.5,-99.9,95,82,77,29.87,29.79,8,-62,15,0.02
2013-8-4,79.5,62.3,61.3,67.0,43.5,-99.9,97,68,52,29.88,29.78,6,-114,10,0.04
2013-8-5,77.2,58.1,59.7,60.0,32.6,-99.9,91,56,38,30.02,29.88,5,-143,9,0.00
2013-8-6,74.3,59.4,56.1,67.0,43.1,-99.9,97,74,62,30.13,30.01,7,-113,7,0.00
2013-8-7,74.6,62.3,60.7,68.0,49.2,-99.9,98,79,69,30.16,30.10,5,-92,5,0.01
2013-8-8,75.8,62.6,66.6,71.0,48.4,-99.9,98,81,85,30.09,30.02,6,-121,7,0.11
2013-8-9,73.9,63.9,69.8,73.0,53.0,-99.9,99,88,96,30.04,29.78,7,-102,10,0.37
2013-8-10,79.8,63.8,66.3,72.0,44.9,-99.9,100,70,64,30.00,29.79,7,-133,11,0.00
2013-8-11,75.7,64.6,59.4,66.0,50.3,-99.9,92,70,51,30.07,29.99,5,-59,12,0.00
2013-8-12,74.4,61.6,65.8,71.0,48.1,-99.9,98,82,83,30.02,29.91,2,-116,3,0.01
2013-8-13,66.7,16.7,64.9,66.0,-58.0,-99.9,99,25,98,29.91,29.67,1,-747,2,0.00
2013-8-14,73.6,53.1,63.8,68.0,20.9,-99.9,99,56,55,29.96,29.67,8,-228,16,0.00
2013-8-15,74.7,59.5,58.2,62.0,39.9,-99.9,89,65,57,30.11,29.97,5,-116,7,0.00
2013-8-16,76.6,65.3,62.0,67.0,53.6,-99.9,96,77,62,30.18,30.09,4,-62,6,0.00
2013-8-17,78.1,63.4,58.9,67.0,49.6,-99.9,98,75,60,30.25,30.18,3,-83,5,0.00
2013-8-18,72.5,59.0,61.3,67.0,44.7,-99.9,97,79,79,30.25,30.08,5,-115,7,0.01
2013-8-19,75.7,61.8,61.4,68.0,45.8,-99.9,95,74,71,30.08,29.97,7,-114,11,0.00
2013-8-20,80.3,64.7,66.4,69.0,47.6,-99.9,96,72,59,30.09,29.98,5,-113,8,0.00
2013-8-21,80.8,68.3,62.9,71.0,57.6,-99.9,98,80,68,30.13,30.03,4,-62,6,0.00
2013-8-22,73.5,65.3,66.7,72.0,57.5,-99.9,98,90,91,30.04,29.83,5,-67,12,0.18
2013-8-23,81.7,51.8,63.0,69.0,20.8,-99.9,99,62,51,30.08,29.81,2,-270,6,0.01
2013-8-24,76.9,59.3,60.3,62.0,39.9,-99.9,96,66,47,30.32,30.08,5,-116,7,0.00
2013-8-25,77.2,62.9,57.8,67.0,48.5,-99.9,98,75,52,30.34,30.20,4,-72,6,0.00
2013-8-26,76.0,62.5,67.9,69.0,46.8,-99.9,98,75,73,30.20,29.89,7,-113,12,0.47
2013-8-27,78.9,58.4,67.7,72.0,40.0,-99.9,99,79,79,29.88,29.78,7,-171,7,0.41
2013-8-28,71.4,57.7,67.4,71.0,41.0,-99.9,99,82,95,29.90,29.83,4,-162,6,0.01
2013-8-29,75.5,50.9,62.4,69.0,23.5,-99.9,100,68,80,30.02,29.89,5,-251,8,0.00
2013-8-30,75.0,42.2,58.6,71.0,1.7,-99.9,97,57,85,30.00,29.84,3,-374,6,0.00
2013-8-31,76.6,46.8,69.5,73.0,11.2,-99.9,98,62,87,29.84,29.80,5,-346,7,0.00
2013-9-1,72.3,6.8,71.4,71.0,-83.7,-99.9,96,9,96,29.86,29.80,5,-904,7,0.00
2013-9-2,73.5,29.6,69.9,73.0,-30.5,-99.9,100,40,99,29.83,29.70,3,-582,4,0.00
2013-9-3,71.2,31.1,62.8,71.0,-24.8,-99.9,100,45,99,29.82,29.67,4,-541,4,0.00
2013-9-4,75.2,60.9,61.1,66.0,44.2,-99.9,100,73,63,29.92,29.82,10,-112,13,0.00
2013-9-5,76.4,60.9,56.9,66.0,43.5,-99.9,94,70,57,30.09,29.87,6,-105,8,0.00
2013-9-6,69.6,55.4,54.0,54.0,34.3,-99.9,91,60,48,30.21,30.10,4,-103,7,0.00
2013-9-7,72.9,54.6,55.5,63.0,31.0,-99.9,93,63,50,30.09,29.87,7,-165,13,0.00
2013-9-8,77.0,55.1,57.1,66.0,27.1,-99.9,92,57,45,30.05,29.75,7,-196,13,0.00
2013-9-9,67.5,52.3,51.5,57.0,27.7,-99.9,77,58,57,30.22,30.05,4,-155,9,0.00
2013-9-10,71.9,57.2,64.6,69.0,37.8,-99.9,97,74,78,30.16,30.00,6,-166,15,0.00
2013-9-11,78.1,51.6,67.7,73.0,21.7,-99.9,98,66,83,30.09,29.98,5,-283,8,0.00
2013-9-12,75.0,53.9,67.5,72.0,28.8,-99.9,98,72,88,29.98,29.67,7,-237,13,0.33
2013-9-13,74.9,51.4,62.9,71.0,22.5,-99.9,99,65,71,29.74,29.58,6,-259,12,0.01
2013-9-14,67.0,41.9,56.1,58.0,6.8,-99.9,89,56,68,30.05,29.74,6,-307,9,0.00
2013-9-15,65.9,34.4,51.8,58.0,-12.4,-99.9,89,45,58,30.16,30.05,5,-426,7,0.00
2013-9-16,67.7,41.5,53.0,60.0,3.2,-99.9,88,52,69,30.20,30.01,5,-339,10,0.00
2013-9-17,61.5,43.6,45.6,48.0,13.9,-99.9,91,52,49,30.38,30.20,6,-198,13,0.00
2013-9-18,67.5,51.6,46.6,56.0,29.2,-99.9,95,63,49,30.32,30.15,5,-125,8,0.00
2013-9-19,69.4,33.6,57.2,60.0,-16.9,-99.9,94,45,58,30.15,30.04,5,-462,7,0.00
2013-9-20,72.1,48.9,54.7,66.0,22.8,-99.9,100,69,80,30.08,30.00,3,-241,5,0.01
2013-9-21,69.9,55.0,59.6,67.0,37.2,-99.9,98,79,91,30.02,29.71,6,-164,7,0.00
2013-9-22,70.2,43.3,54.2,68.0,5.7,-99.9,97,52,63,29.83,29.61,8,-324,12,0.02
2013-9-23,62.8,49.8,48.9,50.0,30.1,-99.9,84,64,59,29.99,29.82,7,-115,12,0.00
2013-9-24,65.8,47.4,47.3,53.0,24.4,-99.9,87,62,57,30.00,29.81,11,-157,13,0.00
2013-9-25,68.1,50.5,47.6,59.0,27.2,-99.9,94,63,55,29.93,29.84,9,-167,10,0.00
2013-9-26,60.9,11.1,57.8,56.0,-71.0,-99.9,84,16,82,30.09,29.94,7,-811,9,0.00
2013-9-27,-200.0,0.0,200.0,-99.9,-99.9,-99.9,0,0,100,30.24,30.08,0,-999,0,0.00
2013-9-28,-200.0,0.0,200.0,-99.9,-99.9,-99.9,0,0,100,30.29,30.23,0,-999,0,0.00
2013-9-29,64.2,36.0,57.4,57.0,-7.6,-99.9,91,49,73,30.23,30.07,7,-404,9,0.01
2013-9-30,64.9,28.6,55.3,59.0,-24.4,-99.9,97,43,72,30.07,29.95,4,-515,5,0.00
2013-10-1,60.1,10.2,53.2,59.0,-72.0,-99.9,96,17,94,29.95,29.84,4,-820,4,0.00
2013-10-2,73.8,23.7,61.8,65.0,-44.8,-99.9,94,29,71,29.96,29.84,5,-652,14,0.00
2013-10-3,72.8,41.0,58.2,61.0,-0.3,-99.9,97,51,54,30.07,29.96,3,-372,6,0.00
2013-10-4,72.6,42.6,58.9,67.0,7.5,-99.9,96,61,82,30.05,29.97,6,-332,8,0.00
2013-10-5,60.6,10.8,59.4,59.0,-71.6,-99.9,95,17,93,30.09,30.01,2,-820,4,0.12
2013-10-6,63.6,39.1,59.8,63.0,1.9,-99.9,98,61,92,30.14,30.06,11,-361,13,0.13
2013-10-7,71.4,51.7,63.6,70.0,26.4,-99.9,99,72,90,30.06,29.84,9,-239,12,0.00
2013-10-8,66.7,31.1,55.2,60.0,-23.0,-99.9,87,35,49,30.31,29.90,5,-483,8,0.00
2013-10-9,63.0,33.3,52.1,53.0,-14.7,-99.9,87,42,63,30.39,30.30,10,-429,12,0.00
2013-10-10,65.1,33.8,51.4,59.0,-10.6,-99.9,91,50,79,30.30,30.08,7,-419,10,0.00
2013-10-11,67.4,49.0,56.6,61.0,22.0,-99.9,93,63,56,30.09,30.02,8,-218,13,0.00
2013-10-12,67.9,45.8,54.4,60.0,16.7,-99.9,89,61,66,30.31,30.08,16,-240,16,0.00
2013-10-13,60.0,43.3,50.8,53.0,15.6,-99.9,91,62,74,30.38,30.29,10,-232,13,0.00
2013-10-14,58.9,34.4,49.0,51.0,-5.1,-99.9,95,53,74,30.37,30.24,4,-365,6,0.00
2013-10-15,62.9,44.6,48.8,56.0,18.8,-99.9,97,65,69,30.25,30.13,8,-218,9,0.00
2013-10-16,66.2,41.5,54.1,60.0,7.6,-99.9,94,60,77,30.12,29.90,7,-315,9,0.00
2013-10-17,61.1,8.8,59.3,59.0,-76.8,-99.9,95,14,93,29.90,29.72,1,-853,3,0.00
2013-10-18,67.0,41.9,56.1,56.0,1.8,-99.9,81,46,62,29.92,29.63,9,-331,16,0.00
2013-10-19,61.7,9.1,49.7,50.0,-75.3,-99.9,83,13,63,29.97,29.74,2,-831,4,0.00
2013-10-20,61.5,26.8,53.4,43.0,-35.3,-99.9,66,24,44,30.02,29.68,8,-541,12,0.00
2013-10-21,63.3,40.3,47.1,51.0,1.9,-99.9,82,47,48,30.11,29.99,8,-303,11,0.00
2013-10-22,65.6,32.6,51.0,56.0,-16.6,-99.9,81,42,68,29.98,29.70,6,-451,9,0.00
2013-10-23,51.0,36.2,44.8,44.0,4.8,-99.9,82,55,60,29.78,29.58,6,-249,11,0.01
2013-10-24,53.2,38.6,44.3,40.0,4.9,-99.9,78,45,44,29.91,29.66,13,-218,17,0.00
2013-10-25,50.8,38.6,42.3,36.0,9.0,-99.9,73,48,48,30.18,29.92,9,-178,14,0.00
2013-10-26,55.4,42.6,41.1,45.0,16.3,-99.9,83,54,50,30.17,29.88,17,-161,23,0.00
2013-10-27,57.3,41.6,42.0,41.0,10.0,-99.9,76,47,46,30.07,29.81,8,-197,17,0.00
2013-10-28,58.3,40.3,39.7,44.0,9.9,-99.9,82,51,52,30.31,30.07,9,-208,18,0.00
2013-10-29,46.7,6.5,41.0,35.0,-80.2,-99.9,67,10,62,30.40,30.31,7,-850,10,0.00
2013-10-30,58.0,22.4,50.0,52.0,-39.3,-99.9,94,33,71,30.34,30.18,4,-595,8,0.00
2013-10-31,62.7,19.9,47.0,61.0,-47.6,-99.9,95,32,92,30.22,29.82,10,-651,13,0.02
2013-11-1,63.3,30.9,60.1,62.0,-20.6,-99.9,95,45,85,29.81,29.54,12,-497,16,0.02
2013-11-2,60.9,7.5,57.0,58.0,-79.9,-99.9,94,12,91,29.71,29.59,4,-871,9,0.00
2013-11-3,48.8,29.2,35.7,41.0,-13.7,-99.9,78,41,47,30.38,29.70,6,-348,11,0.00
2013-11-4,44.9,28.9,34.1,31.0,-11.3,-99.9,74,39,38,30.67,30.39,8,-290,10,0.00
2013-11-5,49.5,32.7,37.5,42.0,-2.5,-99.9,78,52,66,30.67,30.50,6,-293,9,0.00
2013-11-6,50.0,5.2,48.3,43.0,-84.9,-99.9,77,8,76,30.50,30.07,1,-894,4,0.00
2013-11-7,61.1,33.0,43.8,60.0,-7.8,-99.9,97,55,77,30.06,29.68,10,-372,16,0.33
2013-11-8,50.9,32.0,39.8,37.0,-5.5,-99.9,78,44,51,30.12,29.85,11,-280,17,0.00
2013-11-9,50.4,35.6,39.7,41.0,4.8,-99.9,72,49,49,30.23,30.02,9,-207,15,0.00
2013-11-10,58.3,40.5,46.7,46.0,11.5,-99.9,80,54,57,30.02,29.72,18,-203,24,0.01
2013-11-11,53.0,38.1,43.7,44.0,4.2,-99.9,74,48,54,30.13,29.91,13,-225,21,0.00
2013-11-12,53.0,27.5,30.2,42.0,-3.5,-99.9,92,53,59,30.18,29.87,12,-236,17,0.01
2013-11-13,37.9,21.4,30.1,26.0,-28.9,-99.9,65,30,41,30.30,30.18,11,-239,19,0.00
2013-11-14,50.8,36.4,38.1,36.0,3.7,-99.9,72,45,45,30.22,30.10,14,-203,23,0.00
2013-11-15,56.2,37.7,46.5,46.0,4.2,-99.9,89,52,53,30.23,30.16,7,-260,11,0.00
2013-11-16,55.9,39.3,43.9,49.0,12.3,-99.9,94,64,60,30.30,30.21,7,-227,11,0.00
2013-11-17,57.3,18.0,44.3,57.0,-48.4,-99.9,98,33,95,30.29,29.84,4,-662,8,0.00
2013-11-18,62.2,42.7,50.8,57.0,10.5,-99.9,98,54,51,29.83,29.58,15,-252,19,0.00
2013-11-19,50.5,30.1,33.8,38.0,-9.6,-99.9,66,40,47,30.29,29.68,14,-278,16,0.00
2013-11-20,44.3,14.6,-90.0,23.0,-53.3,-99.9,65,18,31,30.60,30.29,4,-222,10,0.00
2013-11-21,49.1,28.1,37.5,42.0,-16.3,-99.9,77,42,51,30.62,30.39,4,-283,7,0.00
2013-11-22,53.0,21.9,49.2,51.0,-36.6,-99.9,95,38,77,30.38,29.83,6,-571,12,0.00
2013-11-23,53.1,31.4,32.5,51.0,-7.1,-99.9,92,41,38,29.93,29.82,15,-270,17,0.00
2013-11-24,32.1,6.7,23.9,21.0,-71.5,-99.9,64,14,48,30.26,29.85,19,-258,21,0.00
2013-11-25,37.7,22.5,22.9,29.0,-16.4,-99.9,72,41,44,30.43,30.25,9,-206,15,0.00
2013-11-26,50.7,34.4,37.4,50.0,7.3,-99.9,97,58,51,30.33,29.95,9,-197,18,0.28
2013-11-27,58.5,25.8,41.4,58.0,-24.4,-99.9,98,49,95,29.94,29.23,11,-497,17,0.93
2013-11-28,35.1,21.5,27.9,22.0,-20.7,-99.9,68,37,44,30.47,29.57,15,-320,17,0.00
2013-11-29,37.0,23.4,27.4,21.0,-14.0,-99.9,62,41,51,30.71,30.46,6,-272,8,0.00
2013-11-30,42.2,24.9,22.8,34.0,-9.2,-99.9,75,50,54,30.75,30.39,9,-269,11,0.00
2013-12-1,51.2,22.9,40.6,50.0,-26.8,-99.9,97,47,71,30.38,29.99,8,-483,12,0.00
2013-12-2,43.8,24.1,37.5,42.0,-16.6,-99.9,100,57,91,29.99,29.88,2,-399,4,0.00
2013-12-3,50.8,32.4,35.8,40.0,2.8,-99.9,97,60,60,29.96,29.83,5,-249,8,0.00
2013-12-4,47.2,28.8,35.8,41.0,-8.7,-99.9,93,53,67,30.17,29.96,4,-332,9,0.00
2013-12-5,53.4,29.0,41.2,53.0,-14.7,-99.9,98,55,92,30.17,29.94,3,-430,7,0.00
2013-12-6,52.2,4.9,51.7,52.0,-85.7,-99.9,98,9,98,30.09,29.88,2,-905,4,0.00
2013-12-7,41.3,20.5,31.9,34.0,-28.5,-99.9,78,39,65,30.48,30.05,9,-435,13,0.00
2013-12-8,32.8,22.2,30.5,25.0,-15.4,-99.9,79,46,60,30.60,30.43,9,-296,13,0.00
2013-12-9,30.4,2.2,28.2,27.0,-90.6,-99.9,90,6,83,30.44,29.89,9,-925,13,0.00
2013-12-10,-200.0,0.0,200.0,-99.9,-99.9,-99.9,0,0,100,30.05,29.79,0,-999,0,0.00
2013-12-11,34.1,20.6,30.4,25.0,-22.7,-99.9,72,42,62,30.28,30.06,15,-368,25,0.00
2013-12-12,31.2,17.4,22.1,20.0,-23.6,-99.9,70,38,46,30.30,30.11,13,-310,21,0.00
2013-12-13,33.1,20.5,24.3,20.0,-20.1,-99.9,72,41,54,30.35,30.06,11,-319,22,0.00
2013-12-14,37.1,15.7,16.8,36.0,-20.4,-99.9,97,57,60,30.56,30.00,19,-332,21,0.01
2013-12-15,39.7,20.3,32.4,39.0,-24.0,-99.9,97,50,69,29.96,29.38,19,-417,23,0.16
2013-12-16,35.5,22.6,24.1,28.0,-11.9,-99.9,75,44,47,30.22,29.77,11,-226,18,0.00
2013-12-17,27.4,13.2,20.4,26.0,-33.6,-99.9,95,49,58,30.25,29.89,10,-450,12,0.00
2013-12-18,35.2,23.6,23.1,27.0,-9.8,-99.9,91,52,64,30.13,29.84,11,-270,21,0.00
2013-12-19,45.0,31.8,32.3,37.0,4.6,-99.9,84,59,61,30.15,29.99,12,-209,20,0.07
2013-12-20,49.6,35.6,39.4,45.0,11.6,-99.9,93,68,72,30.12,29.97,7,-208,10,0.00
2013-12-21,52.6,38.5,45.8,50.0,15.2,-99.9,97,72,88,30.01,29.91,9,-216,12,0.00
2013-12-22,59.3,31.5,49.2,55.0,-10.0,-99.9,99,56,85,29.98,29.84,17,-403,17,0.00
2013-12-23,53.1,4.9,51.2,51.0,-85.7,-99.9,95,9,92,30.07,29.89,3,-904,7,0.00
2013-12-24,38.0,14.8,29.4,25.0,-46.5,-99.9,77,28,53,30.24,30.03,7,-561,12,0.00
2013-12-25,31.1,18.7,19.1,25.0,-17.9,-99.9,77,42,46,30.53,30.25,8,-269,16,0.00
2013-12-26,43.6,23.9,31.6,37.0,-13.6,-99.9,91,53,75,30.44,30.10,14,-334,19,0.02
2013-12-27,37.6,26.9,30.7,28.0,-4.3,-99.9,81,52,58,30.31,30.23,11,-236,15,0.00
2013-12-28,48.3,28.9,34.3,39.0,-8.3,-99.9,89,51,62,30.26,30.04,9,-320,19,0.00
2013-12-29,43.0,4.5,41.4,38.0,-85.5,-99.9,83,8,76,30.05,29.30,5,-894,7,0.00
2013-12-30,43.9,19.0,20.3,41.0,-28.5,-99.9,90,39,54,30.14,29.55,12,-415,16,0.00
2013-12-31,31.4,17.5,19.2,23.0,-22.8,-99.9,78,45,56,30.20,30.04,11,-341,20,0.00
2014-1-1,30.3,27.7,23.8,19.0,15.5,13.0,70,60,49,30.38,30.20,10,3,16,0.00
2014-1-2,29.7,25.1,14.4,27.0,22.2,13.0,93,88,72,30.29,29.66,12,6,17,0.00